createdAt,value
2018-04-28T00:02:17.547Z,15.88
2018-04-28T00:04:46.587Z,15.86
2018-04-28T00:07:15.631Z,15.77
2018-04-28T00:09:46.513Z,15.85
2018-04-28T00:12:15.567Z,15.77
2018-04-28T00:14:44.652Z,15.74
2018-04-28T00:17:16.541Z,15.72
2018-04-28T00:20:01.193Z,15.69
2018-04-28T00:22:50.846Z,15.72
2018-04-28T00:25:20.476Z,15.67
2018-04-28T00:28:01.338Z,15.72
2018-04-28T00:30:51.032Z,15.66
2018-04-28T00:38:52.115Z,15.65
2018-04-28T00:41:22.020Z,15.65
2018-04-28T00:43:51.026Z,15.61
2018-04-28T00:46:26.458Z,15.60
2018-04-28T00:49:11.325Z,15.61
2018-04-28T00:51:42.159Z,15.61
2018-04-28T00:54:20.274Z,15.56
2018-04-28T00:56:58.076Z,15.59
2018-04-28T00:59:28.744Z,15.60
2018-04-28T01:02:13.768Z,15.57
2018-04-28T01:04:46.360Z,15.55
2018-04-28T01:07:28.658Z,15.58
2018-04-28T01:10:01.490Z,15.55
2018-04-28T01:12:33.259Z,15.52
2018-04-28T01:15:02.303Z,15.50
2018-04-28T01:17:31.403Z,15.52
2018-04-28T01:20:09.263Z,15.50
2018-04-28T01:22:43.038Z,15.46
2018-04-28T01:25:32.342Z,15.48
2018-04-28T01:28:01.374Z,15.47
2018-04-28T01:33:48.544Z,15.47
2018-04-28T01:36:38.004Z,15.49
2018-04-28T01:39:09.181Z,15.49
2018-04-28T01:41:41.969Z,15.49
2018-04-28T01:44:26.986Z,15.41
2018-04-28T01:46:59.343Z,15.43
2018-04-28T01:49:29.158Z,15.39
2018-04-28T01:52:19.117Z,15.37
2018-04-28T01:54:51.118Z,15.31
2018-04-28T01:57:23.185Z,15.30
2018-04-28T02:00:10.206Z,15.31
2018-04-28T02:08:19.887Z,15.31
2018-04-28T02:11:02.341Z,15.26
2018-04-28T02:13:53.096Z,15.28
2018-04-28T02:22:14.972Z,15.32
2018-04-28T02:25:05.816Z,15.24
2018-04-28T02:27:42.860Z,15.22
2018-04-28T02:30:12.962Z,15.25
2018-04-28T02:35:25.370Z,15.19
2018-04-28T02:38:18.044Z,15.15
2018-04-28T02:40:54.734Z,15.19
2018-04-28T02:43:24.859Z,15.21
2018-04-28T02:45:55.996Z,15.19
2018-04-28T02:48:30.825Z,15.19
2018-04-28T02:51:04.839Z,15.18
2018-04-28T02:53:51.357Z,15.17
2018-04-28T02:59:25.629Z,15.10
2018-04-28T03:02:05.010Z,15.08
2018-04-28T03:04:49.076Z,15.06
2018-04-28T03:10:22.179Z,15.07
2018-04-28T03:12:51.023Z,14.97
2018-04-28T03:15:19.853Z,15.06
2018-04-28T03:18:06.123Z,15.05
2018-04-28T03:20:47.355Z,15.10
2018-04-28T03:23:27.146Z,15.16
2018-04-28T03:25:59.872Z,15.16
2018-04-28T03:28:32.349Z,15.21
2018-04-28T03:31:03.780Z,15.27
2018-04-28T03:33:38.874Z,15.39
2018-04-28T03:36:26.051Z,15.66
2018-04-28T03:39:10.517Z,16.11
2018-04-28T03:41:56.807Z,16.74
2018-04-28T03:44:34.332Z,17.35
2018-04-28T03:50:27.082Z,18.09
2018-04-28T03:53:01.637Z,18.40
2018-04-28T03:55:32.171Z,18.80
2018-04-28T03:58:12.694Z,19.37
2018-04-28T04:00:54.013Z,19.80
2018-04-28T04:03:23.639Z,19.92
2018-04-28T04:06:12.971Z,20.29
2018-04-28T04:08:50.656Z,20.35
2018-04-28T04:11:41.881Z,21.14
2018-04-28T04:14:27.048Z,21.87
2018-04-28T04:17:07.500Z,21.66
2018-04-28T04:19:46.025Z,22.19
2018-04-28T04:22:21.469Z,22.14
2018-04-28T04:24:50.304Z,22.31
2018-04-28T04:27:37.683Z,22.58
2018-04-28T04:30:18.068Z,22.07
2018-04-28T04:32:51.498Z,21.65
2018-04-28T04:35:41.508Z,22.92
2018-04-28T04:38:28.038Z,22.19
2018-04-28T04:44:15.212Z,22.40
2018-04-28T04:49:59.088Z,22.45
2018-04-28T04:52:54.508Z,22.35
2018-04-28T04:55:43.063Z,22.53
2018-04-28T04:58:23.772Z,22.06
2018-04-28T05:07:10.487Z,22.91
2018-04-28T05:09:48.979Z,23.20
2018-04-28T05:12:24.373Z,23.37
2018-04-28T05:15:17.767Z,23.39
2018-04-28T05:20:43.335Z,23.76
2018-04-28T05:23:17.815Z,23.72
2018-04-28T05:26:05.997Z,24.43
2018-04-28T05:28:48.706Z,23.49
2018-04-28T05:34:30.186Z,24.21
2018-04-28T05:37:10.750Z,25.18
2018-04-28T05:42:59.634Z,24.90
2018-04-28T05:45:40.215Z,23.87
2018-04-28T05:48:34.589Z,24.71
2018-04-28T05:51:32.608Z,24.14
2018-04-28T05:54:07.090Z,25.14
2018-04-28T05:56:58.911Z,24.68
2018-04-28T05:59:42.843Z,24.18
2018-04-28T06:02:18.608Z,24.40
2018-04-28T06:05:08.808Z,24.39
2018-04-28T06:10:22.718Z,24.43
2018-04-28T06:12:59.009Z,24.30
2018-04-28T06:18:33.825Z,24.37
2018-04-28T06:21:02.582Z,24.96
2018-04-28T06:23:31.289Z,25.79
2018-04-28T06:26:00.322Z,25.12
2018-04-28T06:28:29.144Z,24.78
2018-04-28T06:30:58.350Z,25.17
2018-04-28T06:33:29.090Z,25.43
2018-04-28T06:35:57.762Z,24.66
2018-04-28T06:38:26.650Z,24.77
2018-04-28T06:40:55.406Z,25.93
2018-04-28T06:43:24.134Z,26.54
2018-04-28T06:45:52.822Z,25.33
2018-04-28T06:48:21.443Z,26.31
2018-04-28T06:50:50.192Z,26.49
2018-04-28T06:53:18.882Z,25.94
2018-04-28T06:55:49.409Z,25.37
2018-04-28T06:58:18.339Z,25.02
2018-04-28T07:00:47.239Z,25.01
2018-04-28T07:03:16.844Z,24.48
2018-04-28T07:05:45.490Z,24.77
2018-04-28T07:08:14.266Z,25.31
2018-04-28T07:10:43.210Z,24.55
2018-04-28T07:13:11.959Z,24.32
2018-04-28T07:15:40.748Z,24.10
2018-04-28T07:18:10.265Z,24.42
2018-04-28T07:20:39.158Z,24.44
2018-04-28T07:23:07.803Z,24.64
2018-04-28T07:25:37.163Z,24.89
2018-04-28T07:28:05.928Z,25.16
2018-04-28T07:30:34.932Z,24.41
2018-04-28T07:33:05.555Z,23.91
2018-04-28T07:35:34.271Z,23.38
2018-04-28T07:38:03.029Z,22.65
2018-04-28T07:40:31.871Z,21.73
2018-04-28T07:43:00.649Z,21.60
2018-04-28T07:45:29.499Z,21.08
2018-04-28T07:47:59.260Z,20.58
2018-04-28T07:50:28.033Z,20.35
2018-04-28T07:52:57.824Z,20.34
2018-04-28T07:55:28.069Z,20.12
2018-04-28T07:57:56.723Z,19.89
2018-04-28T08:00:25.382Z,20.07
2018-04-28T08:02:54.403Z,19.40
2018-04-28T08:05:23.098Z,19.55
2018-04-28T08:07:52.013Z,19.36
2018-04-28T08:10:21.027Z,19.31
2018-04-28T08:12:49.850Z,19.28
2018-04-28T08:15:18.509Z,19.44
2018-04-28T08:17:47.503Z,19.55
2018-04-28T08:20:16.371Z,19.54
2018-04-28T08:22:45.116Z,19.38
2018-04-28T08:25:18.532Z,19.28
2018-04-28T08:27:48.551Z,19.45
2018-04-28T08:30:17.242Z,19.59
2018-04-28T08:32:46.839Z,19.60
2018-04-28T08:35:15.526Z,19.69
2018-04-28T08:37:44.300Z,19.64
2018-04-28T08:42:47.414Z,19.50
2018-04-28T08:45:16.112Z,19.75
2018-04-28T08:47:44.692Z,19.76
2018-04-28T08:50:13.516Z,19.89
2018-04-28T08:52:42.373Z,19.62
2018-04-28T08:55:11.056Z,19.54
2018-04-28T08:57:39.750Z,19.42
2018-04-28T09:03:04.973Z,20.04
2018-04-28T09:05:33.517Z,19.89
2018-04-28T09:08:02.114Z,19.79
2018-04-28T09:10:33.322Z,19.67
2018-04-28T09:13:02.331Z,19.17
2018-04-28T09:15:31.264Z,19.20
2018-04-28T09:18:00.532Z,19.30
2018-04-28T09:20:29.563Z,18.91
2018-04-28T09:22:58.495Z,18.98
2018-04-28T09:25:28.912Z,19.10
2018-04-28T09:27:57.882Z,18.99
2018-04-28T09:30:26.783Z,19.19
2018-04-28T09:32:55.679Z,19.28
2018-04-28T09:35:24.748Z,19.15
2018-04-28T09:37:53.687Z,19.29
2018-04-28T09:42:57.876Z,19.34
2018-04-28T09:45:26.876Z,19.55
2018-04-28T09:47:55.801Z,19.77
2018-04-28T09:50:26.087Z,19.57
2018-04-28T09:52:55.805Z,19.45
2018-04-28T09:55:24.627Z,19.17
2018-04-28T09:58:06.491Z,19.18
2018-04-28T10:00:51.003Z,19.40
2018-04-28T10:03:24.547Z,18.86
2018-04-28T10:05:53.659Z,18.54
2018-04-28T10:08:22.512Z,18.62
2018-04-28T10:10:53.272Z,18.89
2018-04-28T10:13:22.271Z,18.71
2018-04-28T10:15:51.372Z,18.75
2018-04-28T10:18:20.354Z,18.96
2018-04-28T10:20:50.071Z,18.83
2018-04-28T10:23:19.003Z,19.05
2018-04-28T10:25:47.845Z,18.85
2018-04-28T10:28:16.744Z,19.02
2018-04-28T10:30:45.772Z,19.05
2018-04-28T10:33:15.544Z,18.94
2018-04-28T10:35:44.544Z,18.94
2018-04-28T10:38:13.736Z,18.87
2018-04-28T10:40:44.542Z,18.89
2018-04-28T10:43:13.472Z,18.91
2018-04-28T10:45:42.366Z,18.88
2018-04-28T10:48:11.253Z,18.83
2018-04-28T10:50:40.242Z,18.86
2018-04-28T10:53:09.986Z,18.71
2018-04-28T10:55:41.547Z,18.95
2018-04-28T10:58:10.608Z,19.16
2018-04-28T11:00:39.717Z,19.43
2018-04-28T11:03:08.601Z,19.40
2018-04-28T11:05:37.628Z,19.41
2018-04-28T11:08:06.484Z,19.57
2018-04-28T11:10:35.580Z,19.39
2018-04-28T11:13:04.475Z,19.21
2018-04-28T11:15:33.424Z,18.79
2018-04-28T11:18:05.224Z,18.54
2018-04-28T11:20:34.203Z,18.41
2018-04-28T11:23:03.250Z,18.57
2018-04-28T11:25:33.213Z,18.47
2018-04-28T11:28:02.119Z,18.51
2018-04-28T11:30:31.017Z,18.40
2018-04-28T11:33:00.132Z,18.48
2018-04-28T11:35:29.101Z,18.39
2018-04-28T11:37:58.196Z,18.52
2018-04-28T11:43:01.518Z,18.49
2018-04-28T11:45:30.614Z,18.60
2018-04-28T11:47:59.545Z,18.57
2018-04-28T11:50:28.502Z,18.39
2018-04-28T11:52:57.590Z,18.47
2018-04-28T11:55:27.814Z,18.36
2018-04-28T11:57:56.817Z,18.33
2018-04-28T12:00:25.696Z,18.33
2018-04-28T12:02:55.477Z,18.38
2018-04-28T12:05:25.639Z,18.24
2018-04-28T12:07:54.506Z,18.17
2018-04-28T12:12:57.430Z,17.96
2018-04-28T12:15:26.626Z,18.19
2018-04-28T12:17:56.330Z,18.35
2018-04-28T12:20:26.147Z,18.43
2018-04-28T12:22:56.154Z,18.51
2018-04-28T12:25:25.164Z,18.51
2018-04-28T12:27:54.100Z,18.46
2018-04-28T12:30:23.151Z,18.59
2018-04-28T12:32:52.245Z,18.53
2018-04-28T12:35:21.132Z,18.61
2018-04-28T12:37:50.043Z,18.38
2018-04-28T12:40:21.490Z,18.22
2018-04-28T12:42:50.578Z,18.31
2018-04-28T12:45:19.577Z,18.13
2018-04-28T12:47:48.565Z,18.19
2018-04-28T12:50:17.563Z,18.24
2018-04-28T12:52:47.330Z,18.06
2018-04-28T12:55:21.652Z,17.98
2018-04-28T12:57:50.480Z,18.11
2018-04-28T13:00:19.483Z,18.22
2018-04-28T13:02:48.570Z,18.33
2018-04-28T13:05:17.506Z,18.12
2018-04-28T13:07:46.469Z,18.18
2018-04-28T13:10:15.429Z,18.22
2018-04-28T13:12:44.364Z,18.31
2018-04-28T13:15:13.217Z,18.49
2018-04-28T13:17:42.131Z,18.41
2018-04-28T13:20:11.220Z,18.38
2018-04-28T13:22:40.241Z,18.48
2018-04-28T13:25:09.034Z,18.38
2018-04-28T13:27:38.002Z,18.29
2018-04-28T13:30:07.096Z,18.13
2018-04-28T13:32:36.086Z,18.03
2018-04-28T13:35:05.069Z,18.12
2018-04-28T13:37:34.604Z,18.09
2018-04-28T13:40:03.898Z,18.28
2018-04-28T13:42:32.895Z,18.35
2018-04-28T13:45:01.812Z,18.48
2018-04-28T13:47:30.879Z,18.52
2018-04-28T13:49:59.973Z,18.50
2018-04-28T13:52:28.896Z,18.42
2018-04-28T13:54:58.641Z,18.40
2018-04-28T13:57:27.581Z,18.50
2018-04-28T13:59:56.663Z,18.50
2018-04-28T14:02:27.498Z,18.61
2018-04-28T14:04:57.218Z,18.54
2018-04-28T14:07:26.113Z,18.40
2018-04-28T14:09:55.159Z,18.42
2018-04-28T14:12:24.096Z,18.49
2018-04-28T14:14:53.298Z,18.23
2018-04-28T14:17:23.319Z,18.19
2018-04-28T14:19:52.239Z,18.04
2018-04-28T14:22:21.137Z,18.04
2018-04-28T14:24:51.929Z,18.18
2018-04-28T14:27:21.029Z,18.12
2018-04-28T14:29:49.932Z,18.03
2018-04-28T14:34:53.745Z,17.82
2018-04-28T14:37:22.618Z,17.81
2018-04-28T14:39:56.746Z,17.75
2018-04-28T14:42:40.806Z,17.71
2018-04-28T14:47:43.734Z,17.68
2018-04-28T14:50:12.691Z,17.64
2018-04-28T14:52:41.809Z,17.71
2018-04-28T14:55:10.785Z,17.76
2018-04-28T15:00:20.448Z,17.57
2018-04-28T15:02:49.340Z,17.59
2018-04-28T15:05:18.441Z,17.58
2018-04-28T15:07:47.440Z,17.76
2018-04-28T15:12:55.760Z,17.60
2018-04-28T15:15:24.857Z,17.38
2018-04-28T15:17:53.886Z,17.46
2018-04-28T15:20:22.743Z,17.42
2018-04-28T15:22:51.649Z,17.45
2018-04-28T15:25:21.753Z,17.37
2018-04-28T15:27:50.752Z,17.39
2018-04-28T15:30:19.577Z,17.35
2018-04-28T15:32:48.535Z,17.35
2018-04-28T15:35:17.453Z,17.29
2018-04-28T15:37:46.334Z,17.21
2018-04-28T15:40:16.164Z,17.24
2018-04-28T15:42:45.063Z,17.19
2018-04-28T15:45:14.051Z,17.19
2018-04-28T15:47:43.829Z,17.08
2018-04-28T15:50:12.916Z,16.98
2018-04-28T15:52:41.805Z,16.95
2018-04-28T15:55:10.903Z,17.01
2018-04-28T15:57:39.892Z,16.91
2018-04-28T16:00:08.720Z,16.84
2018-04-28T16:02:37.686Z,16.91
2018-04-28T16:05:07.479Z,16.87
2018-04-28T16:07:36.601Z,16.77
2018-04-28T16:10:07.191Z,16.85
2018-04-28T16:12:36.140Z,16.73
2018-04-28T16:15:05.219Z,16.67
2018-04-28T16:17:34.139Z,16.50
2018-04-28T16:20:03.101Z,16.45
2018-04-28T16:22:31.966Z,16.45
2018-04-28T16:25:02.927Z,16.34
2018-04-28T16:27:31.836Z,16.28
2018-04-28T16:30:00.698Z,16.18
2018-04-28T16:32:29.708Z,16.15
2018-04-28T16:34:58.603Z,16.12
2018-04-28T16:37:27.541Z,16.17
2018-04-28T16:39:56.480Z,16.08
2018-04-28T16:42:25.306Z,16.08
2018-04-28T16:44:54.163Z,16.03
2018-04-28T16:47:23.161Z,16.08
2018-04-28T16:49:52.360Z,16.06
2018-04-28T16:52:21.249Z,16.02
2018-04-28T16:54:51.895Z,16.01
2018-04-28T16:57:21.079Z,15.92
2018-04-28T16:59:58.435Z,15.92
2018-04-28T17:02:27.329Z,15.91
2018-04-28T17:04:57.294Z,15.82
2018-04-28T17:07:27.298Z,15.81
2018-04-28T17:09:56.195Z,15.69
2018-04-28T17:12:25.092Z,15.64
2018-04-28T17:14:55.109Z,15.58
2018-04-28T17:17:35.969Z,15.59
2018-04-28T17:20:04.960Z,15.51
2018-04-28T17:22:33.756Z,15.51
2018-04-28T17:25:02.819Z,15.46
2018-04-28T17:27:31.751Z,15.51
2018-04-28T17:30:00.738Z,15.41
2018-04-28T17:32:29.732Z,15.41
2018-04-28T17:34:59.863Z,15.39
2018-04-28T17:37:29.123Z,15.31
2018-04-28T17:39:58.149Z,15.34
2018-04-28T17:42:27.300Z,15.15
2018-04-28T17:44:56.127Z,15.09
2018-04-28T17:47:25.107Z,15.02
2018-04-28T17:49:54.022Z,15.02
2018-04-28T17:52:22.996Z,14.91
2018-04-28T17:54:51.907Z,14.90
2018-04-28T17:57:21.824Z,14.83
2018-04-28T17:59:50.926Z,14.83
2018-04-28T18:02:20.014Z,14.79
2018-04-28T18:04:53.725Z,14.76
2018-04-28T18:07:23.671Z,14.75
2018-04-28T18:09:52.637Z,14.63
2018-04-28T18:12:28.379Z,14.56
2018-04-28T18:14:57.589Z,14.54
2018-04-28T18:17:27.396Z,14.62
2018-04-28T18:19:56.495Z,14.50
2018-04-28T18:22:25.389Z,14.52
2018-04-28T18:24:54.380Z,14.53
2018-04-28T18:27:25.026Z,14.57
2018-04-28T18:29:54.810Z,14.57
2018-04-28T18:32:23.757Z,14.55
2018-04-28T18:34:53.595Z,14.55
2018-04-28T18:37:22.733Z,14.48
2018-04-28T18:39:51.731Z,14.47
2018-04-28T18:42:21.481Z,14.50
2018-04-28T18:44:50.460Z,14.48
2018-04-28T18:47:19.419Z,14.47
2018-04-28T18:49:49.237Z,14.49
2018-04-28T18:52:18.081Z,14.51
2018-04-28T18:54:47.025Z,14.45
2018-04-28T18:57:18.473Z,14.33
2018-04-28T18:59:48.373Z,14.36
2018-04-28T19:02:22.290Z,14.32
2018-04-28T19:04:51.952Z,14.39
2018-04-28T19:07:20.903Z,14.36
2018-04-28T19:09:51.516Z,14.41
2018-04-28T19:12:20.432Z,14.38
2018-04-28T19:14:49.316Z,14.40
2018-04-28T19:17:19.121Z,14.46
2018-04-28T19:19:48.324Z,14.44
2018-04-28T19:22:17.388Z,14.40
2018-04-28T19:27:33.096Z,14.36
2018-04-28T19:30:01.960Z,14.34
2018-04-28T19:32:31.716Z,14.39
2018-04-28T19:35:01.730Z,14.37
2018-04-28T19:37:30.671Z,14.35
2018-04-28T19:40:01.289Z,14.36
2018-04-28T19:42:30.249Z,14.24
2018-04-28T19:44:59.146Z,14.27
2018-04-28T19:47:28.954Z,14.24
2018-04-28T19:49:57.946Z,14.29
2018-04-28T19:52:26.773Z,14.23
2018-04-28T19:54:55.740Z,14.18
2018-04-28T19:57:24.727Z,14.12
2018-04-28T19:59:53.560Z,14.15
2018-04-28T20:02:30.297Z,14.10
2018-04-28T20:04:59.240Z,14.14
2018-04-28T20:07:28.175Z,14.16
2018-04-28T20:09:57.095Z,14.20
2018-04-28T20:12:26.063Z,14.13
2018-04-28T20:14:55.062Z,14.11
2018-04-28T20:17:23.882Z,14.13
2018-04-28T20:19:52.943Z,14.12
2018-04-28T20:22:33.595Z,14.16
2018-04-28T20:25:14.076Z,14.08
2018-04-28T20:27:43.888Z,14.05
2018-04-28T20:30:12.969Z,14.05
2018-04-28T20:32:41.864Z,14.09
2018-04-28T20:35:13.636Z,14.15
2018-04-28T20:37:42.465Z,14.10
2018-04-28T20:40:11.370Z,14.06
2018-04-28T20:45:15.453Z,14.10
2018-04-28T20:47:44.397Z,14.08
2018-04-28T20:50:15.012Z,14.05
2018-04-28T20:52:43.969Z,14.09
2018-04-28T20:55:12.861Z,14.14
2018-04-28T20:57:41.846Z,14.17
2018-04-28T21:00:10.956Z,14.14
2018-04-28T21:02:44.084Z,14.17
2018-04-28T21:05:13.922Z,14.20
2018-04-28T21:07:42.847Z,14.14
2018-04-28T21:10:12.754Z,14.05
2018-04-28T21:12:41.656Z,14.02
2018-04-28T21:15:10.472Z,14.07
2018-04-28T21:17:39.374Z,14.09
2018-04-28T21:20:08.473Z,14.12
2018-04-28T21:22:37.433Z,14.15
2018-04-28T21:25:09.095Z,14.21
2018-04-28T21:27:37.896Z,14.16
2018-04-28T21:30:06.867Z,14.16
2018-04-28T21:32:36.200Z,14.13
2018-04-28T21:35:05.232Z,14.08
2018-04-28T21:37:34.158Z,14.05
2018-04-28T21:40:04.895Z,14.08
2018-04-28T21:42:33.786Z,14.06
2018-04-28T21:45:02.748Z,14.08
2018-04-28T21:50:06.478Z,14.07
2018-04-28T21:52:35.291Z,14.05
2018-04-28T21:55:04.182Z,14.13
2018-04-28T21:57:33.278Z,14.07
2018-04-28T22:00:02.064Z,14.13
2018-04-28T22:02:31.165Z,14.07
2018-04-28T22:05:00.838Z,14.08
2018-04-28T22:07:29.767Z,14.04
2018-04-28T22:09:58.653Z,14.05
2018-04-28T22:12:28.529Z,14.06
2018-04-28T22:14:57.579Z,14.06
2018-04-28T22:17:26.668Z,14.07
2018-04-28T22:19:55.667Z,14.08
2018-04-28T22:22:24.549Z,14.15
2018-04-28T22:24:53.441Z,14.14
2018-04-28T22:27:22.646Z,14.10
2018-04-28T22:29:53.064Z,14.12
2018-04-28T22:32:21.899Z,14.09
2018-04-28T22:34:50.852Z,14.05
2018-04-28T22:37:19.938Z,14.03
2018-04-28T22:39:48.876Z,14.02
2018-04-28T22:42:18.700Z,14.01
2018-04-28T22:44:47.593Z,14.01
2018-04-28T22:47:16.434Z,13.99
2018-04-28T22:52:19.702Z,14.01
2018-04-28T22:54:48.579Z,14.03
2018-04-28T22:57:17.524Z,13.94
2018-04-28T22:59:46.479Z,13.85
2018-04-28T23:02:15.423Z,13.87
2018-04-28T23:04:49.939Z,13.93
2018-04-28T23:07:18.829Z,13.96
2018-04-28T23:09:47.621Z,13.97
2018-04-28T23:12:18.673Z,13.88
2018-04-28T23:14:47.660Z,13.84
2018-04-28T23:17:16.557Z,13.81
2018-04-28T23:19:45.634Z,13.81
2018-04-28T23:22:17.614Z,13.83
2018-04-28T23:24:52.515Z,13.88
2018-04-28T23:27:21.437Z,13.87
2018-04-28T23:29:50.437Z,13.86
2018-04-28T23:34:54.996Z,13.78
2018-04-28T23:37:24.064Z,13.72
2018-04-28T23:39:53.062Z,13.74
2018-04-28T23:42:21.955Z,13.68
2018-04-28T23:44:50.843Z,13.67
2018-04-28T23:47:20.964Z,13.63
2018-04-28T23:49:49.857Z,13.60
2018-04-28T23:52:18.851Z,13.55
2018-04-28T23:57:23.490Z,13.50
2018-04-28T23:59:52.491Z,13.51
